<?xml version="1.0" encoding="UTF-8" standalone="no" ?>
<gpx xmlns="http://www.topografix.com/GPX/1/1" xmlns:xsi="http://www.w3.org/2001/XMLSchema-instance" xsi:schemaLocation="http://www.topografix.com/GPX/1/1 http://www.topografix.com/GPX/1/1/gpx.xsd" version="1.1" creator="VisuGPX - https://www.visugpx.com">
  <metadata>
    <name>entrainement du 01/02/15</name>
    <desc><![CDATA[1°PETIT LE MANS]]></desc>
  </metadata>
  <trk>
    <name><![CDATA[entrainement du 01/02/15_1]]></name>
    <trkseg>
      <trkpt lat="44.03602" lon="0.36971">
        <ele>132</ele>
        <time>2015-02-01T13:11:20Z</time>
      </trkpt>
      <trkpt lat="44.03609" lon="0.36968">
        <ele>130</ele>
        <time>2015-02-01T13:11:49Z</time>
      </trkpt>
      <trkpt lat="44.03785" lon="0.37028">
        <ele>122</ele>
        <time>2015-02-01T13:12:19Z</time>
      </trkpt>
      <trkpt lat="44.03973" lon="0.37202">
        <ele>113</ele>
        <time>2015-02-01T13:12:50Z</time>
      </trkpt>
      <trkpt lat="44.04069" lon="0.37336">
        <ele>113</ele>
        <time>2015-02-01T13:13:20Z</time>
      </trkpt>
      <trkpt lat="44.04201" lon="0.37478">
        <ele>113</ele>
        <time>2015-02-01T13:13:50Z</time>
      </trkpt>
      <trkpt lat="44.04313" lon="0.37597">
        <ele>113</ele>
        <time>2015-02-01T13:14:20Z</time>
      </trkpt>
      <trkpt lat="44.0445" lon="0.37699">
        <ele>113</ele>
        <time>2015-02-01T13:14:50Z</time>
      </trkpt>
      <trkpt lat="44.04561" lon="0.37842">
        <ele>113</ele>
        <time>2015-02-01T13:15:20Z</time>
      </trkpt>
      <trkpt lat="44.04663" lon="0.38009">
        <ele>110</ele>
        <time>2015-02-01T13:15:51Z</time>
      </trkpt>
      <trkpt lat="44.04607" lon="0.38156">
        <ele>117</ele>
        <time>2015-02-01T13:16:21Z</time>
      </trkpt>
      <trkpt lat="44.04471" lon="0.38203">
        <ele>117</ele>
        <time>2015-02-01T13:16:51Z</time>
      </trkpt>
      <trkpt lat="44.04403" lon="0.38415">
        <ele>117</ele>
        <time>2015-02-01T13:17:21Z</time>
      </trkpt>
      <trkpt lat="44.04281" lon="0.38576">
        <ele>117</ele>
        <time>2015-02-01T13:17:51Z</time>
      </trkpt>
      <trkpt lat="44.04165" lon="0.38654">
        <ele>117</ele>
        <time>2015-02-01T13:18:21Z</time>
      </trkpt>
      <trkpt lat="44.04041" lon="0.38695">
        <ele>121</ele>
        <time>2015-02-01T13:18:52Z</time>
      </trkpt>
      <trkpt lat="44.03932" lon="0.38768">
        <ele>121</ele>
        <time>2015-02-01T13:19:22Z</time>
      </trkpt>
      <trkpt lat="44.03802" lon="0.38884">
        <ele>121</ele>
        <time>2015-02-01T13:19:52Z</time>
      </trkpt>
      <trkpt lat="44.03686" lon="0.38999">
        <ele>125</ele>
        <time>2015-02-01T13:20:22Z</time>
      </trkpt>
      <trkpt lat="44.03533" lon="0.39089">
        <ele>125</ele>
        <time>2015-02-01T13:20:52Z</time>
      </trkpt>
      <trkpt lat="44.03431" lon="0.39129">
        <ele>125</ele>
        <time>2015-02-01T13:21:23Z</time>
      </trkpt>
      <trkpt lat="44.03409" lon="0.39005">
        <ele>130</ele>
        <time>2015-02-01T13:21:53Z</time>
      </trkpt>
      <trkpt lat="44.03379" lon="0.3889">
        <ele>137</ele>
        <time>2015-02-01T13:22:23Z</time>
      </trkpt>
      <trkpt lat="44.03324" lon="0.38796">
        <ele>142</ele>
        <time>2015-02-01T13:22:53Z</time>
      </trkpt>
      <trkpt lat="44.03274" lon="0.38713">
        <ele>142</ele>
        <time>2015-02-01T13:23:23Z</time>
      </trkpt>
      <trkpt lat="44.03274" lon="0.38605">
        <ele>153</ele>
        <time>2015-02-01T13:23:53Z</time>
      </trkpt>
      <trkpt lat="44.03305" lon="0.38493">
        <ele>153</ele>
        <time>2015-02-01T13:24:24Z</time>
      </trkpt>
      <trkpt lat="44.0333" lon="0.38371">
        <ele>162</ele>
        <time>2015-02-01T13:24:54Z</time>
      </trkpt>
      <trkpt lat="44.03371" lon="0.38268">
        <ele>162</ele>
        <time>2015-02-01T13:25:24Z</time>
      </trkpt>
      <trkpt lat="44.03371" lon="0.38265">
        <ele>162</ele>
        <time>2015-02-01T13:25:54Z</time>
      </trkpt>
      <trkpt lat="44.03371" lon="0.38264">
        <ele>162</ele>
        <time>2015-02-01T13:26:24Z</time>
      </trkpt>
      <trkpt lat="44.03371" lon="0.38237">
        <ele>162</ele>
        <time>2015-02-01T13:26:54Z</time>
      </trkpt>
      <trkpt lat="44.0332" lon="0.38105">
        <ele>162</ele>
        <time>2015-02-01T13:27:25Z</time>
      </trkpt>
      <trkpt lat="44.0326" lon="0.37952">
        <ele>163</ele>
        <time>2015-02-01T13:27:55Z</time>
      </trkpt>
      <trkpt lat="44.03235" lon="0.3776">
        <ele>163</ele>
        <time>2015-02-01T13:28:25Z</time>
      </trkpt>
      <trkpt lat="44.0329" lon="0.37529">
        <ele>148</ele>
        <time>2015-02-01T13:28:55Z</time>
      </trkpt>
      <trkpt lat="44.03404" lon="0.37344">
        <ele>148</ele>
        <time>2015-02-01T13:29:25Z</time>
      </trkpt>
      <trkpt lat="44.03528" lon="0.37153">
        <ele>143</ele>
        <time>2015-02-01T13:29:56Z</time>
      </trkpt>
      <trkpt lat="44.03683" lon="0.3698">
        <ele>134</ele>
        <time>2015-02-01T13:30:26Z</time>
      </trkpt>
      <trkpt lat="44.03927" lon="0.37157">
        <ele>113</ele>
        <time>2015-02-01T13:30:56Z</time>
      </trkpt>
      <trkpt lat="44.04043" lon="0.37292">
        <ele>113</ele>
        <time>2015-02-01T13:31:26Z</time>
      </trkpt>
      <trkpt lat="44.04177" lon="0.37441">
        <ele>117</ele>
        <time>2015-02-01T13:31:56Z</time>
      </trkpt>
      <trkpt lat="44.04308" lon="0.37593">
        <ele>117</ele>
        <time>2015-02-01T13:32:26Z</time>
      </trkpt>
      <trkpt lat="44.0444" lon="0.37697">
        <ele>117</ele>
        <time>2015-02-01T13:32:57Z</time>
      </trkpt>
      <trkpt lat="44.04555" lon="0.37834">
        <ele>117</ele>
        <time>2015-02-01T13:33:27Z</time>
      </trkpt>
      <trkpt lat="44.04667" lon="0.38004">
        <ele>111</ele>
        <time>2015-02-01T13:33:57Z</time>
      </trkpt>
      <trkpt lat="44.04617" lon="0.38135">
        <ele>115</ele>
        <time>2015-02-01T13:34:27Z</time>
      </trkpt>
      <trkpt lat="44.04488" lon="0.38187">
        <ele>121</ele>
        <time>2015-02-01T13:34:57Z</time>
      </trkpt>
      <trkpt lat="44.04418" lon="0.38385">
        <ele>117</ele>
        <time>2015-02-01T13:35:27Z</time>
      </trkpt>
      <trkpt lat="44.04309" lon="0.38555">
        <ele>117</ele>
        <time>2015-02-01T13:35:58Z</time>
      </trkpt>
      <trkpt lat="44.04198" lon="0.38632">
        <ele>117</ele>
        <time>2015-02-01T13:36:28Z</time>
      </trkpt>
      <trkpt lat="44.04084" lon="0.38682">
        <ele>122</ele>
        <time>2015-02-01T13:36:58Z</time>
      </trkpt>
      <trkpt lat="44.03981" lon="0.38737">
        <ele>122</ele>
        <time>2015-02-01T13:37:28Z</time>
      </trkpt>
      <trkpt lat="44.0386" lon="0.38829">
        <ele>122</ele>
        <time>2015-02-01T13:37:58Z</time>
      </trkpt>
      <trkpt lat="44.03748" lon="0.38971">
        <ele>122</ele>
        <time>2015-02-01T13:38:28Z</time>
      </trkpt>
      <trkpt lat="44.03582" lon="0.39065">
        <ele>122</ele>
        <time>2015-02-01T13:38:59Z</time>
      </trkpt>
      <trkpt lat="44.03451" lon="0.39139">
        <ele>127</ele>
        <time>2015-02-01T13:39:29Z</time>
      </trkpt>
      <trkpt lat="44.03414" lon="0.39031">
        <ele>127</ele>
        <time>2015-02-01T13:39:59Z</time>
      </trkpt>
      <trkpt lat="44.03394" lon="0.38928">
        <ele>135</ele>
        <time>2015-02-01T13:40:29Z</time>
      </trkpt>
      <trkpt lat="44.03351" lon="0.38839">
        <ele>139</ele>
        <time>2015-02-01T13:40:59Z</time>
      </trkpt>
      <trkpt lat="44.03304" lon="0.3876">
        <ele>143</ele>
        <time>2015-02-01T13:41:29Z</time>
      </trkpt>
      <trkpt lat="44.03257" lon="0.38673">
        <ele>147</ele>
        <time>2015-02-01T13:41:59Z</time>
      </trkpt>
      <trkpt lat="44.03289" lon="0.38574">
        <ele>155</ele>
        <time>2015-02-01T13:42:30Z</time>
      </trkpt>
      <trkpt lat="44.03308" lon="0.38468">
        <ele>159</ele>
        <time>2015-02-01T13:43:00Z</time>
      </trkpt>
      <trkpt lat="44.03331" lon="0.38364">
        <ele>159</ele>
        <time>2015-02-01T13:43:30Z</time>
      </trkpt>
      <trkpt lat="44.03371" lon="0.38243">
        <ele>163</ele>
        <time>2015-02-01T13:44:00Z</time>
      </trkpt>
      <trkpt lat="44.0332" lon="0.38101">
        <ele>163</ele>
        <time>2015-02-01T13:44:30Z</time>
      </trkpt>
      <trkpt lat="44.03259" lon="0.37946">
        <ele>163</ele>
        <time>2015-02-01T13:45:00Z</time>
      </trkpt>
      <trkpt lat="44.03234" lon="0.37754">
        <ele>163</ele>
        <time>2015-02-01T13:45:31Z</time>
      </trkpt>
      <trkpt lat="44.03293" lon="0.37524">
        <ele>154</ele>
        <time>2015-02-01T13:46:01Z</time>
      </trkpt>
      <trkpt lat="44.03402" lon="0.3735">
        <ele>148</ele>
        <time>2015-02-01T13:46:31Z</time>
      </trkpt>
      <trkpt lat="44.03511" lon="0.37173">
        <ele>143</ele>
        <time>2015-02-01T13:47:01Z</time>
      </trkpt>
      <trkpt lat="44.03605" lon="0.36979">
        <ele>128</ele>
        <time>2015-02-01T13:47:31Z</time>
      </trkpt>
    </trkseg>
  </trk>
</gpx>